sensor_id;sensor_type;location;lat;lon;timestamp;temperature;humidity
51855;DHT22;37895;53.240;6.572;2023-05-14T00:00:19;12.40;98.40
51855;DHT22;37895;53.240;6.572;2023-05-14T00:02:45;12.30;98.40
51855;DHT22;37895;53.240;6.572;2023-05-14T00:05:10;12.30;98.60
51855;DHT22;37895;53.240;6.572;2023-05-14T00:07:36;12.20;98.70
51855;DHT22;37895;53.240;6.572;2023-05-14T00:10:02;12.20;98.80
51855;DHT22;37895;53.240;6.572;2023-05-14T00:12:27;12.10;98.90
51855;DHT22;37895;53.240;6.572;2023-05-14T00:14:54;12.00;98.90
51855;DHT22;37895;53.240;6.572;2023-05-14T00:17:21;12.00;98.90
51855;DHT22;37895;53.240;6.572;2023-05-14T00:19:46;12.00;98.90
51855;DHT22;37895;53.240;6.572;2023-05-14T00:22:12;12.00;98.90
51855;DHT22;37895;53.240;6.572;2023-05-14T00:24:37;12.00;98.90
51855;DHT22;37895;53.240;6.572;2023-05-14T00:27:03;12.00;98.90
51855;DHT22;37895;53.240;6.572;2023-05-14T00:29:29;11.90;99.10
51855;DHT22;37895;53.240;6.572;2023-05-14T00:31:54;11.80;99.20
51855;DHT22;37895;53.240;6.572;2023-05-14T00:34:20;11.80;99.30
51855;DHT22;37895;53.240;6.572;2023-05-14T00:36:46;11.80;99.30
51855;DHT22;37895;53.240;6.572;2023-05-14T00:39:12;11.70;99.50
51855;DHT22;37895;53.240;6.572;2023-05-14T00:41:38;11.50;99.70
51855;DHT22;37895;53.240;6.572;2023-05-14T00:44:04;11.40;99.90
51855;DHT22;37895;53.240;6.572;2023-05-14T00:46:29;11.40;99.90
51855;DHT22;37895;53.240;6.572;2023-05-14T00:48:56;11.40;99.90
51855;DHT22;37895;53.240;6.572;2023-05-14T00:51:22;11.30;99.90
51855;DHT22;37895;53.240;6.572;2023-05-14T00:53:49;11.40;99.90
51855;DHT22;37895;53.240;6.572;2023-05-14T00:56:15;11.40;99.90
51855;DHT22;37895;53.240;6.572;2023-05-14T00:58:42;11.40;99.90
51855;DHT22;37895;53.240;6.572;2023-05-14T01:01:08;11.30;99.90
51855;DHT22;37895;53.240;6.572;2023-05-14T01:03:33;11.30;99.90
51855;DHT22;37895;53.240;6.572;2023-05-14T01:06:11;11.30;99.90
51855;DHT22;37895;53.240;6.572;2023-05-14T01:12:04;11.30;99.90
51855;DHT22;37895;53.240;6.572;2023-05-14T01:17:16;11.30;99.90
51855;DHT22;37895;53.240;6.572;2023-05-14T01:19:54;11.30;99.90
51855;DHT22;37895;53.240;6.572;2023-05-14T01:22:21;11.30;99.90
51855;DHT22;37895;53.240;6.572;2023-05-14T01:24:46;11.30;99.90
51855;DHT22;37895;53.240;6.572;2023-05-14T01:27:24;11.30;99.90
51855;DHT22;37895;53.240;6.572;2023-05-14T01:33:13;11.40;99.90
51855;DHT22;37895;53.240;6.572;2023-05-14T01:35:40;11.40;99.90
51855;DHT22;37895;53.240;6.572;2023-05-14T01:38:09;11.30;99.90
51855;DHT22;37895;53.240;6.572;2023-05-14T01:40:36;11.30;99.90
51855;DHT22;37895;53.240;6.572;2023-05-14T01:43:03;11.20;99.90
51855;DHT22;37895;53.240;6.572;2023-05-14T01:45:30;11.30;99.90
51855;DHT22;37895;53.240;6.572;2023-05-14T01:47:55;11.30;99.90
51855;DHT22;37895;53.240;6.572;2023-05-14T01:50:21;11.30;99.90
51855;DHT22;37895;53.240;6.572;2023-05-14T01:52:47;11.10;99.90
51855;DHT22;37895;53.240;6.572;2023-05-14T01:55:13;11.00;99.90
51855;DHT22;37895;53.240;6.572;2023-05-14T01:57:40;11.00;99.90
51855;DHT22;37895;53.240;6.572;2023-05-14T02:00:06;11.00;99.90
51855;DHT22;37895;53.240;6.572;2023-05-14T02:02:32;10.90;99.90
51855;DHT22;37895;53.240;6.572;2023-05-14T02:04:57;11.00;99.90
51855;DHT22;37895;53.240;6.572;2023-05-14T02:07:23;11.00;99.90
51855;DHT22;37895;53.240;6.572;2023-05-14T02:09:48;11.00;99.90
51855;DHT22;37895;53.240;6.572;2023-05-14T02:12:14;11.00;99.90
51855;DHT22;37895;53.240;6.572;2023-05-14T02:14:40;11.00;99.90
51855;DHT22;37895;53.240;6.572;2023-05-14T02:17:05;11.00;99.90
51855;DHT22;37895;53.240;6.572;2023-05-14T02:19:31;10.90;99.90
51855;DHT22;37895;53.240;6.572;2023-05-14T02:21:58;10.90;99.90
51855;DHT22;37895;53.240;6.572;2023-05-14T02:24:24;10.80;99.90
51855;DHT22;37895;53.240;6.572;2023-05-14T02:26:50;10.80;99.90
51855;DHT22;37895;53.240;6.572;2023-05-14T02:29:15;10.80;99.90
51855;DHT22;37895;53.240;6.572;2023-05-14T02:31:41;10.80;99.90
51855;DHT22;37895;53.240;6.572;2023-05-14T02:34:06;10.80;99.90
51855;DHT22;37895;53.240;6.572;2023-05-14T02:36:32;10.80;99.90
51855;DHT22;37895;53.240;6.572;2023-05-14T02:38:58;10.80;99.90
51855;DHT22;37895;53.240;6.572;2023-05-14T02:41:24;10.70;99.90
51855;DHT22;37895;53.240;6.572;2023-05-14T02:43:50;10.70;99.90
51855;DHT22;37895;53.240;6.572;2023-05-14T02:46:16;10.70;99.90
51855;DHT22;37895;53.240;6.572;2023-05-14T02:48:42;10.80;99.90
51855;DHT22;37895;53.240;6.572;2023-05-14T02:51:07;10.80;99.90
51855;DHT22;37895;53.240;6.572;2023-05-14T02:53:33;10.80;99.90
51855;DHT22;37895;53.240;6.572;2023-05-14T02:55:59;10.90;99.90
51855;DHT22;37895;53.240;6.572;2023-05-14T02:58:25;10.80;99.90
51855;DHT22;37895;53.240;6.572;2023-05-14T03:00:50;10.80;99.90
51855;DHT22;37895;53.240;6.572;2023-05-14T03:03:17;10.80;99.90
51855;DHT22;37895;53.240;6.572;2023-05-14T03:05:43;10.80;99.90
51855;DHT22;37895;53.240;6.572;2023-05-14T03:08:09;10.80;99.90
51855;DHT22;37895;53.240;6.572;2023-05-14T03:10:34;10.80;99.90
51855;DHT22;37895;53.240;6.572;2023-05-14T03:13:00;10.80;99.90
51855;DHT22;37895;53.240;6.572;2023-05-14T03:15:26;10.80;99.90
51855;DHT22;37895;53.240;6.572;2023-05-14T03:17:51;10.80;99.90
51855;DHT22;37895;53.240;6.572;2023-05-14T03:20:17;10.80;99.90
51855;DHT22;37895;53.240;6.572;2023-05-14T03:22:42;10.80;99.90
51855;DHT22;37895;53.240;6.572;2023-05-14T03:25:08;10.80;99.90
51855;DHT22;37895;53.240;6.572;2023-05-14T03:27:34;10.80;99.90
51855;DHT22;37895;53.240;6.572;2023-05-14T03:29:59;10.80;99.90
51855;DHT22;37895;53.240;6.572;2023-05-14T03:32:25;10.70;99.90
51855;DHT22;37895;53.240;6.572;2023-05-14T03:34:51;10.80;99.90
51855;DHT22;37895;53.240;6.572;2023-05-14T03:37:16;10.70;99.90
51855;DHT22;37895;53.240;6.572;2023-05-14T03:39:42;10.70;99.90
51855;DHT22;37895;53.240;6.572;2023-05-14T03:42:07;10.70;99.90
51855;DHT22;37895;53.240;6.572;2023-05-14T03:44:33;10.70;99.90
51855;DHT22;37895;53.240;6.572;2023-05-14T03:46:59;10.70;99.90
51855;DHT22;37895;53.240;6.572;2023-05-14T03:49:24;10.70;99.90
51855;DHT22;37895;53.240;6.572;2023-05-14T03:51:50;10.70;99.90
51855;DHT22;37895;53.240;6.572;2023-05-14T03:54:16;10.70;99.90
51855;DHT22;37895;53.240;6.572;2023-05-14T03:56:41;10.60;99.90
51855;DHT22;37895;53.240;6.572;2023-05-14T03:59:07;10.70;99.90
51855;DHT22;37895;53.240;6.572;2023-05-14T04:01:32;10.70;99.90
51855;DHT22;37895;53.240;6.572;2023-05-14T04:03:58;10.70;99.90
51855;DHT22;37895;53.240;6.572;2023-05-14T04:06:24;10.60;99.90
51855;DHT22;37895;53.240;6.572;2023-05-14T04:08:49;10.50;99.90
51855;DHT22;37895;53.240;6.572;2023-05-14T04:11:15;10.40;99.90
51855;DHT22;37895;53.240;6.572;2023-05-14T04:13:41;10.40;99.90
51855;DHT22;37895;53.240;6.572;2023-05-14T04:16:06;10.40;99.90
51855;DHT22;37895;53.240;6.572;2023-05-14T04:18:32;10.50;99.90
51855;DHT22;37895;53.240;6.572;2023-05-14T04:21:00;10.50;99.90
51855;DHT22;37895;53.240;6.572;2023-05-14T04:23:26;10.60;99.90
51855;DHT22;37895;53.240;6.572;2023-05-14T04:25:51;10.60;99.90
51855;DHT22;37895;53.240;6.572;2023-05-14T04:28:17;10.60;99.90
51855;DHT22;37895;53.240;6.572;2023-05-14T04:30:42;10.70;99.90
51855;DHT22;37895;53.240;6.572;2023-05-14T04:33:08;10.60;99.90
51855;DHT22;37895;53.240;6.572;2023-05-14T04:35:34;10.70;99.90
51855;DHT22;37895;53.240;6.572;2023-05-14T04:38:00;10.80;99.90
51855;DHT22;37895;53.240;6.572;2023-05-14T04:44:06;10.70;99.90
51855;DHT22;37895;53.240;6.572;2023-05-14T04:46:32;10.80;99.90
51855;DHT22;37895;53.240;6.572;2023-05-14T04:48:58;10.80;99.90
51855;DHT22;37895;53.240;6.572;2023-05-14T04:51:23;10.90;99.90
51855;DHT22;37895;53.240;6.572;2023-05-14T04:53:49;11.00;99.90
51855;DHT22;37895;53.240;6.572;2023-05-14T04:56:15;11.00;99.90
51855;DHT22;37895;53.240;6.572;2023-05-14T04:58:40;11.10;99.90
51855;DHT22;37895;53.240;6.572;2023-05-14T05:01:06;11.10;99.90
51855;DHT22;37895;53.240;6.572;2023-05-14T05:03:31;11.20;99.90
51855;DHT22;37895;53.240;6.572;2023-05-14T05:05:57;11.30;99.90
51855;DHT22;37895;53.240;6.572;2023-05-14T05:08:23;11.30;99.90
51855;DHT22;37895;53.240;6.572;2023-05-14T05:10:48;11.30;99.90
51855;DHT22;37895;53.240;6.572;2023-05-14T05:13:14;11.30;99.90
51855;DHT22;37895;53.240;6.572;2023-05-14T05:15:41;11.40;99.90
51855;DHT22;37895;53.240;6.572;2023-05-14T05:18:07;11.40;99.90
51855;DHT22;37895;53.240;6.572;2023-05-14T05:20:33;11.50;99.90
51855;DHT22;37895;53.240;6.572;2023-05-14T05:22:58;11.50;99.90
51855;DHT22;37895;53.240;6.572;2023-05-14T05:25:24;11.60;99.90
51855;DHT22;37895;53.240;6.572;2023-05-14T05:27:50;11.60;99.90
51855;DHT22;37895;53.240;6.572;2023-05-14T05:30:15;11.70;99.90
51855;DHT22;37895;53.240;6.572;2023-05-14T05:32:41;11.80;99.90
51855;DHT22;37895;53.240;6.572;2023-05-14T05:35:07;11.80;99.90
51855;DHT22;37895;53.240;6.572;2023-05-14T05:37:33;11.90;99.90
51855;DHT22;37895;53.240;6.572;2023-05-14T05:39:58;11.90;99.90
51855;DHT22;37895;53.240;6.572;2023-05-14T05:42:24;12.00;99.90
51855;DHT22;37895;53.240;6.572;2023-05-14T05:44:56;12.10;99.90
51855;DHT22;37895;53.240;6.572;2023-05-14T05:57:43;12.50;99.90
51855;DHT22;37895;53.240;6.572;2023-05-14T06:03:31;12.80;99.90
51855;DHT22;37895;53.240;6.572;2023-05-14T06:06:08;13.00;99.90
51855;DHT22;37895;53.240;6.572;2023-05-14T06:08:34;13.10;99.90
51855;DHT22;37895;53.240;6.572;2023-05-14T06:10:59;13.10;99.90
51855;DHT22;37895;53.240;6.572;2023-05-14T06:13:25;13.20;99.90
51855;DHT22;37895;53.240;6.572;2023-05-14T06:15:51;13.30;99.90
51855;DHT22;37895;53.240;6.572;2023-05-14T06:18:16;13.40;99.90
51855;DHT22;37895;53.240;6.572;2023-05-14T06:20:42;13.50;99.90
51855;DHT22;37895;53.240;6.572;2023-05-14T06:23:07;13.70;99.90
51855;DHT22;37895;53.240;6.572;2023-05-14T06:25:33;13.80;99.90
51855;DHT22;37895;53.240;6.572;2023-05-14T06:27:59;13.80;99.90
51855;DHT22;37895;53.240;6.572;2023-05-14T06:30:25;13.90;99.90
51855;DHT22;37895;53.240;6.572;2023-05-14T06:32:50;14.00;99.90
51855;DHT22;37895;53.240;6.572;2023-05-14T06:35:17;14.10;99.90
51855;DHT22;37895;53.240;6.572;2023-05-14T06:37:43;14.20;99.90
51855;DHT22;37895;53.240;6.572;2023-05-14T06:40:09;14.20;99.90
51855;DHT22;37895;53.240;6.572;2023-05-14T06:42:35;14.30;99.90
51855;DHT22;37895;53.240;6.572;2023-05-14T06:45:01;14.40;99.90
51855;DHT22;37895;53.240;6.572;2023-05-14T06:47:26;14.40;99.90
51855;DHT22;37895;53.240;6.572;2023-05-14T06:49:52;14.40;99.90
51855;DHT22;37895;53.240;6.572;2023-05-14T06:52:18;14.40;99.90
51855;DHT22;37895;53.240;6.572;2023-05-14T06:54:43;14.40;99.90
51855;DHT22;37895;53.240;6.572;2023-05-14T06:57:09;14.40;99.90
51855;DHT22;37895;53.240;6.572;2023-05-14T06:59:35;14.40;99.90
51855;DHT22;37895;53.240;6.572;2023-05-14T07:02:00;14.40;99.90
51855;DHT22;37895;53.240;6.572;2023-05-14T07:04:27;14.40;99.90
51855;DHT22;37895;53.240;6.572;2023-05-14T07:06:53;14.40;99.90
51855;DHT22;37895;53.240;6.572;2023-05-14T07:09:18;14.50;99.90
51855;DHT22;37895;53.240;6.572;2023-05-14T07:11:44;14.50;99.90
51855;DHT22;37895;53.240;6.572;2023-05-14T07:14:09;14.50;99.90
51855;DHT22;37895;53.240;6.572;2023-05-14T07:16:35;14.60;99.90
51855;DHT22;37895;53.240;6.572;2023-05-14T07:19:01;14.60;99.90
51855;DHT22;37895;53.240;6.572;2023-05-14T07:21:36;14.70;99.90
51855;DHT22;37895;53.240;6.572;2023-05-14T07:24:02;14.70;99.90
51855;DHT22;37895;53.240;6.572;2023-05-14T07:26:27;14.70;99.60
51855;DHT22;37895;53.240;6.572;2023-05-14T07:28:53;14.80;99.40
51855;DHT22;37895;53.240;6.572;2023-05-14T07:31:19;14.80;99.50
51855;DHT22;37895;53.240;6.572;2023-05-14T07:33:44;14.80;99.50
51855;DHT22;37895;53.240;6.572;2023-05-14T07:36:10;14.80;99.20
51855;DHT22;37895;53.240;6.572;2023-05-14T07:38:36;14.70;99.40
51855;DHT22;37895;53.240;6.572;2023-05-14T07:41:01;14.70;99.60
51855;DHT22;37895;53.240;6.572;2023-05-14T07:43:27;14.70;99.90
51855;DHT22;37895;53.240;6.572;2023-05-14T07:45:53;14.80;99.90
51855;DHT22;37895;53.240;6.572;2023-05-14T07:48:18;14.80;99.90
51855;DHT22;37895;53.240;6.572;2023-05-14T07:50:44;14.70;99.80
51855;DHT22;37895;53.240;6.572;2023-05-14T07:53:10;14.70;99.90
51855;DHT22;37895;53.240;6.572;2023-05-14T07:55:35;14.80;99.90
51855;DHT22;37895;53.240;6.572;2023-05-14T07:58:01;14.70;99.90
51855;DHT22;37895;53.240;6.572;2023-05-14T08:00:27;14.70;99.90
51855;DHT22;37895;53.240;6.572;2023-05-14T08:02:54;14.80;99.90
51855;DHT22;37895;53.240;6.572;2023-05-14T08:05:19;14.80;99.90
51855;DHT22;37895;53.240;6.572;2023-05-14T08:07:45;14.90;99.90
51855;DHT22;37895;53.240;6.572;2023-05-14T08:10:11;15.00;99.90
51855;DHT22;37895;53.240;6.572;2023-05-14T08:12:37;15.10;99.90
51855;DHT22;37895;53.240;6.572;2023-05-14T08:15:03;15.30;99.90
51855;DHT22;37895;53.240;6.572;2023-05-14T08:17:29;15.40;99.70
51855;DHT22;37895;53.240;6.572;2023-05-14T08:19:54;15.50;99.40
51855;DHT22;37895;53.240;6.572;2023-05-14T08:22:20;15.60;99.40
51855;DHT22;37895;53.240;6.572;2023-05-14T08:24:46;15.80;99.40
51855;DHT22;37895;53.240;6.572;2023-05-14T08:27:11;15.80;98.90
51855;DHT22;37895;53.240;6.572;2023-05-14T08:29:37;15.70;98.50
51855;DHT22;37895;53.240;6.572;2023-05-14T08:32:03;15.80;98.70
51855;DHT22;37895;53.240;6.572;2023-05-14T08:34:29;15.90;98.30
51855;DHT22;37895;53.240;6.572;2023-05-14T08:36:55;15.90;98.10
51855;DHT22;37895;53.240;6.572;2023-05-14T08:42:43;15.90;97.30
51855;DHT22;37895;53.240;6.572;2023-05-14T08:45:19;15.90;97.10
51855;DHT22;37895;53.240;6.572;2023-05-14T08:47:49;16.00;97.40
51855;DHT22;37895;53.240;6.572;2023-05-14T08:50:16;16.00;97.30
51855;DHT22;37895;53.240;6.572;2023-05-14T08:52:45;16.10;96.90
51855;DHT22;37895;53.240;6.572;2023-05-14T08:55:11;16.10;97.10
51855;DHT22;37895;53.240;6.572;2023-05-14T08:57:37;16.20;96.70
51855;DHT22;37895;53.240;6.572;2023-05-14T09:00:04;16.20;96.40
51855;DHT22;37895;53.240;6.572;2023-05-14T09:02:33;16.20;96.30
51855;DHT22;37895;53.240;6.572;2023-05-14T09:05:01;16.30;96.20
51855;DHT22;37895;53.240;6.572;2023-05-14T09:07:28;16.30;96.30
51855;DHT22;37895;53.240;6.572;2023-05-14T09:09:54;16.40;96.50
51855;DHT22;37895;53.240;6.572;2023-05-14T09:16:01;16.60;96.00
51855;DHT22;37895;53.240;6.572;2023-05-14T09:18:27;16.60;96.00
51855;DHT22;37895;53.240;6.572;2023-05-14T09:20:53;16.60;95.70
51855;DHT22;37895;53.240;6.572;2023-05-14T09:23:18;16.70;95.80
51855;DHT22;37895;53.240;6.572;2023-05-14T09:25:46;16.60;95.80
51855;DHT22;37895;53.240;6.572;2023-05-14T09:28:16;16.60;95.60
51855;DHT22;37895;53.240;6.572;2023-05-14T09:30:43;16.70;95.50
51855;DHT22;37895;53.240;6.572;2023-05-14T09:33:11;16.70;95.70
51855;DHT22;37895;53.240;6.572;2023-05-14T09:35:37;16.80;95.60
51855;DHT22;37895;53.240;6.572;2023-05-14T09:38:05;16.80;95.80
51855;DHT22;37895;53.240;6.572;2023-05-14T09:40:32;16.80;96.00
51855;DHT22;37895;53.240;6.572;2023-05-14T09:43:00;17.00;96.00
51855;DHT22;37895;53.240;6.572;2023-05-14T09:45:26;17.10;96.20
51855;DHT22;37895;53.240;6.572;2023-05-14T09:51:29;17.20;94.90
51855;DHT22;37895;53.240;6.572;2023-05-14T09:53:56;17.30;94.80
51855;DHT22;37895;53.240;6.572;2023-05-14T09:56:22;17.40;95.00
51855;DHT22;37895;53.240;6.572;2023-05-14T09:58:48;17.50;94.80
51855;DHT22;37895;53.240;6.572;2023-05-14T10:01:15;17.70;94.70
51855;DHT22;37895;53.240;6.572;2023-05-14T10:03:42;17.80;94.70
51855;DHT22;37895;53.240;6.572;2023-05-14T10:06:08;18.10;94.40
51855;DHT22;37895;53.240;6.572;2023-05-14T10:08:40;18.20;94.30
51855;DHT22;37895;53.240;6.572;2023-05-14T10:11:12;18.50;94.20
51855;DHT22;37895;53.240;6.572;2023-05-14T10:13:41;18.50;93.80
51855;DHT22;37895;53.240;6.572;2023-05-14T10:16:21;18.60;93.80
51855;DHT22;37895;53.240;6.572;2023-05-14T10:18:51;18.60;93.70
51855;DHT22;37895;53.240;6.572;2023-05-14T10:21:19;18.70;93.80
51855;DHT22;37895;53.240;6.572;2023-05-14T10:23:47;18.70;93.80
51855;DHT22;37895;53.240;6.572;2023-05-14T10:26:14;18.70;93.70
51855;DHT22;37895;53.240;6.572;2023-05-14T10:28:40;18.70;93.60
51855;DHT22;37895;53.240;6.572;2023-05-14T10:31:07;18.60;93.60
51855;DHT22;37895;53.240;6.572;2023-05-14T10:33:46;18.50;93.60
51855;DHT22;37895;53.240;6.572;2023-05-14T10:36:12;18.50;93.50
51855;DHT22;37895;53.240;6.572;2023-05-14T10:38:38;18.50;93.70
51855;DHT22;37895;53.240;6.572;2023-05-14T10:41:14;18.60;94.10
51855;DHT22;37895;53.240;6.572;2023-05-14T10:43:42;18.80;93.90
51855;DHT22;37895;53.240;6.572;2023-05-14T10:46:10;19.00;92.70
51855;DHT22;37895;53.240;6.572;2023-05-14T10:48:38;19.10;90.80
51855;DHT22;37895;53.240;6.572;2023-05-14T10:51:07;19.30;90.50
51855;DHT22;37895;53.240;6.572;2023-05-14T10:53:36;19.30;89.70
51855;DHT22;37895;53.240;6.572;2023-05-14T10:56:06;19.40;86.80
51855;DHT22;37895;53.240;6.572;2023-05-14T10:58:35;19.40;82.20
51855;DHT22;37895;53.240;6.572;2023-05-14T11:01:01;19.30;85.00
51855;DHT22;37895;53.240;6.572;2023-05-14T11:03:30;19.40;85.40
51855;DHT22;37895;53.240;6.572;2023-05-14T11:05:58;19.50;84.20
51855;DHT22;37895;53.240;6.572;2023-05-14T11:08:25;19.50;83.10
51855;DHT22;37895;53.240;6.572;2023-05-14T11:10:53;19.60;82.00
51855;DHT22;37895;53.240;6.572;2023-05-14T11:13:19;19.70;81.00
51855;DHT22;37895;53.240;6.572;2023-05-14T11:15:45;19.80;81.90
51855;DHT22;37895;53.240;6.572;2023-05-14T11:18:12;19.90;80.60
51855;DHT22;37895;53.240;6.572;2023-05-14T11:20:38;20.00;80.80
51855;DHT22;37895;53.240;6.572;2023-05-14T11:23:04;20.30;81.40
51855;DHT22;37895;53.240;6.572;2023-05-14T11:25:30;20.50;81.50
51855;DHT22;37895;53.240;6.572;2023-05-14T11:27:56;20.70;81.30
51855;DHT22;37895;53.240;6.572;2023-05-14T11:30:23;20.90;80.70
51855;DHT22;37895;53.240;6.572;2023-05-14T11:32:49;20.90;80.20
51855;DHT22;37895;53.240;6.572;2023-05-14T11:35:16;21.10;79.70
51855;DHT22;37895;53.240;6.572;2023-05-14T11:37:42;20.90;79.60
51855;DHT22;37895;53.240;6.572;2023-05-14T11:40:14;21.00;80.00
51855;DHT22;37895;53.240;6.572;2023-05-14T11:42:43;21.00;79.30
51855;DHT22;37895;53.240;6.572;2023-05-14T11:45:12;20.90;78.50
51855;DHT22;37895;53.240;6.572;2023-05-14T11:47:39;20.80;79.30
51855;DHT22;37895;53.240;6.572;2023-05-14T11:50:06;20.80;78.50
51855;DHT22;37895;53.240;6.572;2023-05-14T11:52:39;20.90;79.10
51855;DHT22;37895;53.240;6.572;2023-05-14T11:55:09;20.90;74.90
51855;DHT22;37895;53.240;6.572;2023-05-14T11:57:35;21.00;77.10
51855;DHT22;37895;53.240;6.572;2023-05-14T12:00:00;21.00;76.20
51855;DHT22;37895;53.240;6.572;2023-05-14T12:02:26;21.10;76.10
51855;DHT22;37895;53.240;6.572;2023-05-14T12:04:53;21.30;74.50
51855;DHT22;37895;53.240;6.572;2023-05-14T12:07:19;21.40;72.50
51855;DHT22;37895;53.240;6.572;2023-05-14T12:09:46;21.50;69.90
51855;DHT22;37895;53.240;6.572;2023-05-14T12:12:21;21.50;63.40
51855;DHT22;37895;53.240;6.572;2023-05-14T12:14:48;21.60;65.00
51855;DHT22;37895;53.240;6.572;2023-05-14T12:17:18;21.70;64.10
51855;DHT22;37895;53.240;6.572;2023-05-14T12:19:46;21.80;65.10
51855;DHT22;37895;53.240;6.572;2023-05-14T12:22:14;21.80;62.70
51855;DHT22;37895;53.240;6.572;2023-05-14T12:24:42;21.80;62.20
51855;DHT22;37895;53.240;6.572;2023-05-14T12:27:09;21.90;62.90
51855;DHT22;37895;53.240;6.572;2023-05-14T12:29:38;21.90;62.00
51855;DHT22;37895;53.240;6.572;2023-05-14T12:32:08;21.90;60.50
51855;DHT22;37895;53.240;6.572;2023-05-14T12:34:36;21.90;61.50
51855;DHT22;37895;53.240;6.572;2023-05-14T12:37:02;22.00;61.80
51855;DHT22;37895;53.240;6.572;2023-05-14T12:39:31;21.80;57.30
51855;DHT22;37895;53.240;6.572;2023-05-14T12:41:57;21.70;59.40
51855;DHT22;37895;53.240;6.572;2023-05-14T12:44:22;21.80;60.70
51855;DHT22;37895;53.240;6.572;2023-05-14T12:46:48;21.80;57.70
51855;DHT22;37895;53.240;6.572;2023-05-14T12:49:14;22.00;61.50
51855;DHT22;37895;53.240;6.572;2023-05-14T12:51:39;22.00;58.60
51855;DHT22;37895;53.240;6.572;2023-05-14T12:54:05;22.10;55.80
51855;DHT22;37895;53.240;6.572;2023-05-14T12:56:30;22.40;59.60
51855;DHT22;37895;53.240;6.572;2023-05-14T12:58:56;22.20;59.10
51855;DHT22;37895;53.240;6.572;2023-05-14T13:01:22;22.20;61.20
51855;DHT22;37895;53.240;6.572;2023-05-14T13:03:48;22.40;58.40
51855;DHT22;37895;53.240;6.572;2023-05-14T13:06:13;22.50;60.90
51855;DHT22;37895;53.240;6.572;2023-05-14T13:08:39;22.50;59.60
51855;DHT22;37895;53.240;6.572;2023-05-14T13:11:05;22.30;55.90
51855;DHT22;37895;53.240;6.572;2023-05-14T13:13:30;22.40;56.60
51855;DHT22;37895;53.240;6.572;2023-05-14T13:15:56;22.10;62.90
51855;DHT22;37895;53.240;6.572;2023-05-14T13:18:22;21.90;73.90
51855;DHT22;37895;53.240;6.572;2023-05-14T13:20:47;21.90;77.80
51855;DHT22;37895;53.240;6.572;2023-05-14T13:23:13;21.90;78.20
51855;DHT22;37895;53.240;6.572;2023-05-14T13:25:39;21.90;76.50
51855;DHT22;37895;53.240;6.572;2023-05-14T13:28:04;21.90;77.70
51855;DHT22;37895;53.240;6.572;2023-05-14T13:30:30;21.90;79.30
51855;DHT22;37895;53.240;6.572;2023-05-14T13:32:57;21.90;77.90
51855;DHT22;37895;53.240;6.572;2023-05-14T13:35:22;21.90;76.30
51855;DHT22;37895;53.240;6.572;2023-05-14T13:37:48;22.00;78.80
51855;DHT22;37895;53.240;6.572;2023-05-14T13:46:59;21.80;87.20
51855;DHT22;37895;53.240;6.572;2023-05-14T13:49:25;21.40;85.80
51855;DHT22;37895;53.240;6.572;2023-05-14T13:51:51;21.20;86.20
51855;DHT22;37895;53.240;6.572;2023-05-14T13:54:16;21.20;86.80
51855;DHT22;37895;53.240;6.572;2023-05-14T13:56:42;21.10;87.90
51855;DHT22;37895;53.240;6.572;2023-05-14T13:59:07;21.10;88.70
51855;DHT22;37895;53.240;6.572;2023-05-14T14:01:33;21.20;89.20
51855;DHT22;37895;53.240;6.572;2023-05-14T14:03:59;21.30;89.30
51855;DHT22;37895;53.240;6.572;2023-05-14T14:06:25;21.40;88.60
51855;DHT22;37895;53.240;6.572;2023-05-14T14:08:52;21.20;88.40
51855;DHT22;37895;53.240;6.572;2023-05-14T14:11:17;21.40;89.00
51855;DHT22;37895;53.240;6.572;2023-05-14T14:13:43;21.50;87.90
51855;DHT22;37895;53.240;6.572;2023-05-14T14:19:30;21.60;89.60
51855;DHT22;37895;53.240;6.572;2023-05-14T14:21:56;21.80;88.40
51855;DHT22;37895;53.240;6.572;2023-05-14T14:24:21;22.00;87.30
51855;DHT22;37895;53.240;6.572;2023-05-14T14:26:47;22.00;86.70
51855;DHT22;37895;53.240;6.572;2023-05-14T14:29:13;21.90;88.00
51855;DHT22;37895;53.240;6.572;2023-05-14T14:35:00;21.80;87.80
51855;DHT22;37895;53.240;6.572;2023-05-14T14:37:26;21.80;88.00
51855;DHT22;37895;53.240;6.572;2023-05-14T14:39:51;21.50;89.30
51855;DHT22;37895;53.240;6.572;2023-05-14T14:42:17;21.50;88.30
51855;DHT22;37895;53.240;6.572;2023-05-14T14:44:42;21.60;88.90
51855;DHT22;37895;53.240;6.572;2023-05-14T14:47:08;21.60;88.50
51855;DHT22;37895;53.240;6.572;2023-05-14T14:49:34;21.50;90.00
51855;DHT22;37895;53.240;6.572;2023-05-14T14:52:00;21.50;90.00
51855;DHT22;37895;53.240;6.572;2023-05-14T14:54:26;21.60;90.40
51855;DHT22;37895;53.240;6.572;2023-05-14T14:56:52;21.40;89.40
51855;DHT22;37895;53.240;6.572;2023-05-14T14:59:17;21.00;90.50
51855;DHT22;37895;53.240;6.572;2023-05-14T15:01:43;21.00;90.70
51855;DHT22;37895;53.240;6.572;2023-05-14T15:04:09;21.00;90.70
51855;DHT22;37895;53.240;6.572;2023-05-14T15:06:34;21.00;90.90
51855;DHT22;37895;53.240;6.572;2023-05-14T15:09:00;20.70;91.20
51855;DHT22;37895;53.240;6.572;2023-05-14T15:11:26;20.70;91.20
51855;DHT22;37895;53.240;6.572;2023-05-14T15:13:53;20.70;91.20
51855;DHT22;37895;53.240;6.572;2023-05-14T15:16:18;20.80;91.40
51855;DHT22;37895;53.240;6.572;2023-05-14T15:18:44;20.80;91.40
51855;DHT22;37895;53.240;6.572;2023-05-14T15:21:10;21.00;91.50
51855;DHT22;37895;53.240;6.572;2023-05-14T15:23:35;21.00;91.00
51855;DHT22;37895;53.240;6.572;2023-05-14T15:26:01;21.00;91.10
51855;DHT22;37895;53.240;6.572;2023-05-14T15:28:26;20.90;91.00
51855;DHT22;37895;53.240;6.572;2023-05-14T15:30:52;20.60;91.10
51855;DHT22;37895;53.240;6.572;2023-05-14T15:33:18;20.30;91.50
51855;DHT22;37895;53.240;6.572;2023-05-14T15:35:44;20.30;91.90
51855;DHT22;37895;53.240;6.572;2023-05-14T15:38:10;20.10;91.70
51855;DHT22;37895;53.240;6.572;2023-05-14T15:40:36;19.90;91.80
51855;DHT22;37895;53.240;6.572;2023-05-14T15:43:01;19.70;92.10
51855;DHT22;37895;53.240;6.572;2023-05-14T15:45:27;19.40;92.70
51855;DHT22;37895;53.240;6.572;2023-05-14T15:47:53;19.30;92.40
51855;DHT22;37895;53.240;6.572;2023-05-14T15:50:18;19.40;92.20
51855;DHT22;37895;53.240;6.572;2023-05-14T15:52:44;19.30;92.80
51855;DHT22;37895;53.240;6.572;2023-05-14T15:55:10;19.30;92.60
51855;DHT22;37895;53.240;6.572;2023-05-14T15:57:36;19.60;92.10
51855;DHT22;37895;53.240;6.572;2023-05-14T16:00:02;19.50;91.90
51855;DHT22;37895;53.240;6.572;2023-05-14T16:02:38;19.40;91.80
51855;DHT22;37895;53.240;6.572;2023-05-14T16:05:05;19.20;92.10
51855;DHT22;37895;53.240;6.572;2023-05-14T16:07:31;18.90;92.20
51855;DHT22;37895;53.240;6.572;2023-05-14T16:09:57;18.80;92.00
51855;DHT22;37895;53.240;6.572;2023-05-14T16:12:23;18.90;92.00
51855;DHT22;37895;53.240;6.572;2023-05-14T16:14:48;19.00;91.80